Time;durP1;ratioP1;P1;durP2;ratioP2;P2;SDS_P1;SDS_P2;PMS_P1;PMS_P2;Temp;Humidity;BMP_temperature;BMP_pressure;BME280_temperature;BME280_humidity;BME280_pressure;Samples;Min_cycle;Max_cycle;Signal;HPM_P1;HPM_P2
2023/08/12 00:01:08;;;;;;;25.42;13.48;;;;;;;20.70;100.00;101562.06;4987611;28;20114;-78
2023/08/12 00:03:35;;;;;;;25.58;14.07;;;;;;;20.74;100.00;101551.38;4997210;28;20634;-80
2023/08/12 00:06:05;;;;;;;23.13;14.18;;;;;;;20.82;100.00;101544.19;4990630;28;20046;-78
2023/08/12 00:08:31;;;;;;;24.67;13.68;;;;;;;20.97;100.00;101526.19;5002491;28;20109;-78
2023/08/12 00:10:58;;;;;;;23.85;12.93;;;;;;;20.92;100.00;101525.97;4990881;28;20046;-79
2023/08/12 00:13:25;;;;;;;25.40;13.02;;;;;;;20.73;100.00;101535.69;4990921;28;20061;-77
2023/08/12 00:15:52;;;;;;;24.88;13.60;;;;;;;20.59;100.00;101550.41;4989792;28;20062;-79
2023/08/12 00:18:18;;;;;;;23.55;13.68;;;;;;;20.59;100.00;101539.13;4989887;28;20057;-78
2023/08/12 00:20:45;;;;;;;23.08;14.30;;;;;;;20.56;100.00;101540.06;4990855;28;20050;-77
2023/08/12 00:23:11;;;;;;;24.63;14.85;;;;;;;20.57;100.00;101535.97;4988282;28;20582;-77
2023/08/12 00:25:38;;;;;;;25.10;14.70;;;;;;;20.76;100.00;101531.94;4989748;28;20054;-80
2023/08/12 00:28:05;;;;;;;24.88;14.45;;;;;;;20.79;100.00;101531.78;4989797;28;20544;-77
2023/08/12 00:30:31;;;;;;;27.33;15.70;;;;;;;20.77;100.00;101530.66;4989507;28;20524;-78
2023/08/12 00:32:58;;;;;;;25.75;15.65;;;;;;;20.82;100.00;101530.84;4987724;28;20112;-78
2023/08/12 00:35:24;;;;;;;27.08;14.32;;;;;;;20.81;100.00;101529.28;4989287;28;20046;-78
2023/08/12 00:37:51;;;;;;;25.13;15.50;;;;;;;20.88;100.00;101517.66;4987601;28;20430;-78
2023/08/12 00:40:17;;;;;;;26.27;15.73;;;;;;;20.94;100.00;101507.34;4987156;28;20049;-77
2023/08/12 00:42:44;;;;;;;26.25;14.95;;;;;;;20.93;100.00;101514.22;4988287;28;20109;-77
2023/08/12 00:45:13;;;;;;;24.35;15.23;;;;;;;20.86;100.00;101522.97;4989566;28;20054;-78
2023/08/12 00:47:41;;;;;;;25.33;13.70;;;;;;;20.62;100.00;101526.88;4988933;28;20054;-78
2023/08/12 00:50:09;;;;;;;21.58;13.85;;;;;;;20.64;100.00;101538.50;4989112;28;20050;-79
2023/08/12 00:52:36;;;;;;;26.25;14.43;;;;;;;20.62;100.00;101529.72;5002405;28;20128;-78
2023/08/12 00:55:03;;;;;;;25.15;15.63;;;;;;;20.58;100.00;101532.66;4986155;28;20535;-79
2023/08/12 00:57:30;;;;;;;25.70;16.30;;;;;;;20.56;100.00;101535.19;4989733;28;20054;-78
2023/08/12 00:59:56;;;;;;;25.85;15.68;;;;;;;20.35;100.00;101519.09;5002438;28;20088;-79
2023/08/12 01:02:23;;;;;;;30.10;16.90;;;;;;;20.31;100.00;101534.63;4985399;28;20070;-79
2023/08/12 01:04:50;;;;;;;27.63;16.67;;;;;;;20.31;100.00;101540.28;4986707;28;20050;-79
2023/08/12 01:07:17;;;;;;;30.05;17.90;;;;;;;20.42;100.00;101540.63;4988258;28;20218;-78
2023/08/12 01:09:43;;;;;;;26.88;17.50;;;;;;;20.50;100.00;101539.09;4988218;28;20050;-79
2023/08/12 01:12:17;;;;;;;27.13;17.95;;;;;;;20.37;100.00;101530.75;4988214;28;20078;-78
2023/08/12 01:14:51;;;;;;;28.60;16.42;;;;;;;20.43;100.00;101548.66;4987560;28;20058;-78
2023/08/12 01:17:17;;;;;;;29.25;17.13;;;;;;;20.43;100.00;101542.22;4988510;28;20520;-78
2023/08/12 01:19:47;;;;;;;30.30;19.17;;;;;;;20.41;100.00;101553.97;4989354;28;20452;-80
2023/08/12 01:22:14;;;;;;;32.28;19.75;;;;;;;20.44;100.00;101527.63;4988301;28;20042;-79
2023/08/12 01:24:43;;;;;;;34.55;22.02;;;;;;;20.53;100.00;101519.19;5004029;28;20042;-79
2023/08/12 01:27:11;;;;;;;33.53;21.10;;;;;;;20.52;100.00;101526.06;4988013;28;20046;-79
2023/08/12 01:29:42;;;;;;;35.47;21.27;;;;;;;20.52;100.00;101531.72;4988788;28;20061;-79
2023/08/12 01:32:47;;;;;;;34.80;21.63;;;;;;;20.59;100.00;101527.81;4988837;28;20157;-79
2023/08/12 01:35:32;;;;;;;32.80;20.40;;;;;;;20.64;100.00;101524.38;4986817;28;20046;-79
2023/08/12 01:38:02;;;;;;;34.13;21.77;;;;;;;20.61;100.00;101520.44;4988447;28;20097;-79
2023/08/12 01:40:31;;;;;;;33.75;22.50;;;;;;;20.57;100.00;101516.19;4987942;28;20077;-78
2023/08/12 01:42:59;;;;;;;33.25;21.63;;;;;;;20.51;100.00;101520.88;4988106;28;20039;-79
2023/08/12 01:45:26;;;;;;;37.47;23.90;;;;;;;20.55;100.00;101513.06;4986188;28;20634;-79
2023/08/12 01:47:52;;;;;;;40.20;24.60;;;;;;;20.57;100.00;101502.84;4988383;28;20050;-79
2023/08/12 01:50:21;;;;;;;39.13;24.63;;;;;;;20.61;100.00;101503.50;4987485;28;20042;-80
2023/08/12 01:52:48;;;;;;;36.88;23.38;;;;;;;20.62;100.00;101507.13;4986282;28;20416;-79
2023/08/12 01:55:14;;;;;;;37.03;22.65;;;;;;;20.61;100.00;101509.13;4986069;28;20065;-79
2023/08/12 01:57:41;;;;;;;35.83;23.13;;;;;;;20.57;100.00;101505.69;4982181;28;20105;-79
2023/08/12 02:00:08;;;;;;;34.85;22.38;;;;;;;20.55;100.00;101502.53;4987621;28;20523;-78
2023/08/12 02:02:34;;;;;;;36.65;21.77;;;;;;;20.56;100.00;101506.94;4986997;28;20042;-79
2023/08/12 02:05:01;;;;;;;38.28;21.80;;;;;;;20.56;100.00;101495.66;4983944;28;20112;-79
2023/08/12 02:07:28;;;;;;;32.92;20.92;;;;;;;20.38;100.00;101501.22;4988368;28;20046;-78
2023/08/12 02:09:54;;;;;;;45.45;22.98;;;;;;;20.30;100.00;101516.13;4987732;28;20046;-78
2023/08/12 02:12:21;;;;;;;38.30;21.42;;;;;;;20.28;100.00;101524.28;4987893;28;20046;-80
2023/08/12 02:14:47;;;;;;;35.55;22.67;;;;;;;20.33;100.00;101510.34;4986529;28;20082;-79
2023/08/12 02:17:14;;;;;;;40.28;23.10;;;;;;;20.26;100.00;101510.63;5003031;28;20054;-79
2023/08/12 02:19:40;;;;;;;41.28;22.60;;;;;;;20.23;100.00;101517.19;4987533;28;20108;-79
2023/08/12 02:22:07;;;;;;;44.30;24.15;;;;;;;20.23;100.00;101511.56;4988323;28;20039;-78
2023/08/12 02:24:33;;;;;;;42.97;25.70;;;;;;;20.26;100.00;101504.97;4991801;28;20050;-79
2023/08/12 02:27:00;;;;;;;46.95;25.35;;;;;;;20.33;100.00;101504.69;4991390;28;20054;-79
2023/08/12 02:29:26;;;;;;;43.08;24.67;;;;;;;20.37;100.00;101504.53;4989520;28;20100;-78
2023/08/12 02:31:53;;;;;;;35.65;21.80;;;;;;;20.41;100.00;101500.31;4989817;28;20046;-78
2023/08/12 02:34:20;;;;;;;39.20;23.33;;;;;;;20.43;100.00;101489.34;4991209;28;20136;-79
2023/08/12 02:36:46;;;;;;;36.47;21.20;;;;;;;20.49;100.00;101487.44;4988497;28;20050;-78
2023/08/12 02:39:13;;;;;;;35.00;21.25;;;;;;;20.52;100.00;101478.03;4992128;28;20054;-79
2023/08/12 02:41:40;;;;;;;38.20;21.83;;;;;;;20.54;100.00;101474.75;5005617;28;20089;-79
2023/08/12 02:44:06;;;;;;;39.70;22.05;;;;;;;20.56;100.00;101464.56;4990942;28;20085;-79
2023/08/12 02:46:33;;;;;;;36.70;21.83;;;;;;;20.52;100.00;101452.63;4988604;28;20102;-79
2023/08/12 02:48:59;;;;;;;35.30;20.90;;;;;;;20.55;100.00;101456.56;4991211;28;20050;-79
2023/08/12 02:51:26;;;;;;;37.38;21.02;;;;;;;20.57;100.00;101452.00;4990072;28;20062;-80
2023/08/12 02:53:52;;;;;;;35.90;21.90;;;;;;;20.60;100.00;101445.44;4990306;28;20057;-79
2023/08/12 02:56:19;;;;;;;40.88;22.85;;;;;;;20.55;100.00;101450.91;4991387;28;20054;-78
2023/08/12 02:58:47;;;;;;;37.20;22.38;;;;;;;20.55;100.00;101454.50;4991713;28;20050;-78
2023/08/12 03:01:13;;;;;;;35.42;21.95;;;;;;;20.58;100.00;101453.56;5004443;28;20050;-78
2023/08/12 03:03:40;;;;;;;40.03;24.13;;;;;;;20.58;100.00;101441.47;4988929;28;20128;-78
2023/08/12 03:06:07;;;;;;;38.45;23.52;;;;;;;20.56;100.00;101444.81;5005571;28;20050;-78
2023/08/12 03:08:33;;;;;;;38.50;24.20;;;;;;;20.55;100.00;101443.22;4989701;28;20050;-79
2023/08/12 03:11:01;;;;;;;39.97;23.08;;;;;;;20.57;100.00;101437.09;4990837;28;20053;-75
2023/08/12 03:13:29;;;;;;;35.45;23.30;;;;;;;20.56;100.00;101439.16;4989967;28;20042;-78
2023/08/12 03:15:55;;;;;;;42.53;23.98;;;;;;;20.54;100.00;101438.03;4990925;28;20539;-76
2023/08/12 03:18:22;;;;;;;36.20;20.75;;;;;;;20.54;100.00;101435.19;4990448;28;20213;-79
2023/08/12 03:20:49;;;;;;;35.70;21.90;;;;;;;20.53;100.00;101428.00;4989408;28;20138;-79
2023/08/12 03:23:16;;;;;;;35.47;21.95;;;;;;;20.56;100.00;101433.50;4990667;28;21421;-79
2023/08/12 03:25:42;;;;;;;34.42;20.55;;;;;;;20.59;100.00;101421.25;4991340;28;20104;-78
2023/08/12 03:28:09;;;;;;;32.05;20.35;;;;;;;20.54;100.00;101416.22;4988765;28;20125;-78
2023/08/12 03:30:35;;;;;;;32.30;20.38;;;;;;;20.55;100.00;101423.44;4989139;28;20209;-77
2023/08/12 03:33:02;;;;;;;35.88;20.92;;;;;;;20.57;100.00;101422.97;4989980;28;20409;-78
2023/08/12 03:35:29;;;;;;;31.88;19.75;;;;;;;20.55;100.00;101414.97;4990311;28;20500;-79
2023/08/12 03:37:56;;;;;;;33.13;20.38;;;;;;;20.56;100.00;101416.56;4989738;28;20085;-80
2023/08/12 03:40:22;;;;;;;34.30;19.35;;;;;;;20.55;100.00;101420.63;4989466;28;20050;-79
2023/08/12 03:42:49;;;;;;;35.20;20.02;;;;;;;20.54;100.00;101406.97;4988007;28;20049;-79
2023/08/12 03:45:15;;;;;;;36.35;22.02;;;;;;;20.56;100.00;101418.59;4989470;28;20516;-79
2023/08/12 03:47:42;;;;;;;33.08;20.58;;;;;;;20.60;100.00;101422.81;4999436;28;20050;-78
2023/08/12 03:50:09;;;;;;;34.65;19.65;;;;;;;20.59;100.00;101409.16;4990170;28;20061;-77
2023/08/12 03:52:35;;;;;;;30.63;17.63;;;;;;;20.65;100.00;101413.72;4988695;28;20661;-79
2023/08/12 03:55:02;;;;;;;29.08;18.58;;;;;;;20.71;100.00;101399.75;4990651;28;20093;-77
2023/08/12 03:57:29;;;;;;;43.08;20.52;;;;;;;20.72;100.00;101402.09;4988504;28;20053;-76
2023/08/12 03:59:56;;;;;;;30.08;17.75;;;;;;;20.75;100.00;101389.84;4990664;28;20066;-79
2023/08/12 04:02:22;;;;;;;34.65;19.15;;;;;;;20.73;100.00;101400.88;4985546;28;20050;-77
2023/08/12 04:04:49;;;;;;;32.35;20.00;;;;;;;20.74;100.00;101398.78;4988357;28;20100;-77
2023/08/12 04:07:16;;;;;;;32.28;19.85;;;;;;;20.75;100.00;101401.16;4990217;28;20112;-77
2023/08/12 04:09:42;;;;;;;28.05;18.38;;;;;;;20.71;100.00;101397.72;4990088;28;20097;-77
2023/08/12 04:12:09;;;;;;;31.40;17.63;;;;;;;20.66;100.00;101383.44;4989080;28;20141;-77
2023/08/12 04:14:35;;;;;;;27.60;17.65;;;;;;;20.73;100.00;101374.63;4989020;28;20053;-78
2023/08/12 04:17:02;;;;;;;30.20;18.10;;;;;;;20.74;100.00;101384.66;4989042;28;20050;-78
2023/08/12 04:19:29;;;;;;;29.38;17.48;;;;;;;20.73;100.00;101374.63;4988880;28;20078;-78
2023/08/12 04:21:55;;;;;;;29.80;16.50;;;;;;;20.76;100.00;101379.34;4989408;28;20120;-77
2023/08/12 04:24:22;;;;;;;28.55;17.80;;;;;;;20.76;100.00;101376.53;4989562;28;20046;-76
2023/08/12 04:26:48;;;;;;;30.15;17.08;;;;;;;20.69;100.00;101371.19;4989036;28;20544;-79
2023/08/12 04:29:16;;;;;;;28.02;16.80;;;;;;;20.71;100.00;101379.97;4989406;28;20062;-78
2023/08/12 04:31:43;;;;;;;29.15;17.15;;;;;;;20.66;100.00;101364.41;4989355;28;20050;-78
2023/08/12 04:34:09;;;;;;;31.45;17.45;;;;;;;20.67;100.00;101354.72;5000706;28;20500;-79
2023/08/12 04:36:36;;;;;;;26.40;15.65;;;;;;;20.72;100.00;101358.94;4989678;28;20050;-78
2023/08/12 04:39:04;;;;;;;32.78;17.30;;;;;;;20.73;100.00;101361.31;4987747;28;20053;-77
2023/08/12 04:41:30;;;;;;;29.15;17.58;;;;;;;20.67;100.00;101351.09;4989363;28;20046;-78
2023/08/12 04:43:57;;;;;;;28.38;16.52;;;;;;;20.71;100.00;101344.03;4987960;28;20096;-77
2023/08/12 04:46:23;;;;;;;31.75;19.92;;;;;;;20.70;100.00;101334.00;4982153;28;20050;-79
2023/08/12 04:48:50;;;;;;;28.77;17.25;;;;;;;20.72;100.00;101348.41;4988129;28;20118;-78
2023/08/12 04:51:16;;;;;;;31.40;18.38;;;;;;;20.73;100.00;101337.91;4988836;28;20142;-76
2023/08/12 04:53:43;;;;;;;31.92;17.92;;;;;;;20.65;100.00;101334.59;4988466;28;20042;-78
2023/08/12 04:56:09;;;;;;;32.75;19.05;;;;;;;20.69;100.00;101335.22;4989558;28;20050;-79
2023/08/12 04:58:36;;;;;;;31.80;19.35;;;;;;;20.68;100.00;101336.50;4988038;28;20578;-76
2023/08/12 05:01:03;;;;;;;32.17;20.52;;;;;;;20.67;100.00;101337.75;4988623;28;20073;-79
2023/08/12 05:03:29;;;;;;;34.03;19.42;;;;;;;20.60;100.00;101338.06;4990637;28;20074;-79
2023/08/12 05:05:56;;;;;;;33.85;19.73;;;;;;;20.54;100.00;101345.59;4990143;28;20137;-79
2023/08/12 05:08:22;;;;;;;33.33;20.98;;;;;;;20.58;100.00;101337.75;4988956;28;20046;-79
2023/08/12 05:10:49;;;;;;;32.95;21.45;;;;;;;20.59;100.00;101341.38;4987409;28;20050;-78
2023/08/12 05:13:16;;;;;;;33.13;21.15;;;;;;;20.60;100.00;101329.59;4987577;28;20054;-78
2023/08/12 05:15:47;;;;;;;31.25;21.42;;;;;;;20.62;100.00;101337.59;4988513;28;20085;-78
2023/08/12 05:18:14;;;;;;;32.13;20.90;;;;;;;20.70;100.00;101338.84;4988861;28;20062;-79
2023/08/12 05:20:41;;;;;;;35.42;20.63;;;;;;;20.73;100.00;101341.53;4989238;28;20056;-78
2023/08/12 05:23:12;;;;;;;36.03;22.17;;;;;;;20.81;100.00;101337.09;4988006;28;20049;-77
2023/08/12 05:25:40;;;;;;;35.42;20.33;;;;;;;20.82;100.00;101333.00;4987501;28;20058;-78
2023/08/12 05:28:07;;;;;;;34.55;21.17;;;;;;;20.83;100.00;101340.22;4986293;28;20053;-79
2023/08/12 05:30:35;;;;;;;29.00;20.55;;;;;;;20.88;100.00;101336.78;4989813;28;20054;-76
2023/08/12 05:33:02;;;;;;;34.75;20.67;;;;;;;20.90;100.00;101336.31;4985349;28;20070;-78
2023/08/12 05:35:36;;;;;;;34.08;21.05;;;;;;;20.92;100.00;101343.03;4985481;28;20065;-78
2023/08/12 05:38:03;;;;;;;40.42;22.85;;;;;;;20.98;100.00;101334.75;4988442;28;20563;-78
2023/08/12 05:40:32;;;;;;;37.38;21.10;;;;;;;20.99;100.00;101336.31;4986513;28;20062;-79
2023/08/12 05:42:59;;;;;;;36.28;20.58;;;;;;;21.03;100.00;101332.06;4988044;28;20042;-79
2023/08/12 05:45:25;;;;;;;33.13;19.38;;;;;;;21.02;100.00;101321.22;4985199;28;20113;-77
2023/08/12 05:47:52;;;;;;;35.60;19.45;;;;;;;20.94;100.00;101322.81;4978976;28;20108;-76
2023/08/12 05:50:18;;;;;;;36.08;20.58;;;;;;;20.95;100.00;101313.06;4984355;28;20607;-78
2023/08/12 05:52:45;;;;;;;33.33;19.80;;;;;;;20.86;100.00;101319.50;4988554;28;20050;-80
2023/08/12 05:55:15;;;;;;;33.15;20.85;;;;;;;20.98;100.00;101321.41;4989064;28;20072;-79
2023/08/12 05:57:41;;;;;;;32.55;20.38;;;;;;;20.87;100.00;101315.44;4990901;28;20046;-79
2023/08/12 06:00:08;;;;;;;34.20;20.95;;;;;;;20.94;100.00;101322.81;4991562;28;20054;-79
2023/08/12 06:02:35;;;;;;;31.95;19.83;;;;;;;20.90;100.00;101317.31;4989282;28;20145;-79
2023/08/12 06:05:02;;;;;;;33.63;19.67;;;;;;;21.03;100.00;101319.97;4992668;28;20054;-78
2023/08/12 06:07:29;;;;;;;27.67;16.33;;;;;;;20.86;100.00;101313.84;5003933;28;20592;-79
2023/08/12 06:09:55;;;;;;;30.80;17.38;;;;;;;20.86;100.00;101313.09;4991695;28;20084;-80
2023/08/12 06:12:22;;;;;;;25.58;15.82;;;;;;;20.87;100.00;101306.97;4988704;28;20050;-77
2023/08/12 06:14:48;;;;;;;26.40;15.80;;;;;;;20.85;100.00;101303.81;4990677;28;20058;-78
2023/08/12 06:17:15;;;;;;;27.13;15.57;;;;;;;21.12;100.00;101302.97;4988231;28;20148;-79
2023/08/12 06:19:42;;;;;;;25.73;15.18;;;;;;;21.11;100.00;101293.72;4991687;28;20050;-77
2023/08/12 06:22:08;;;;;;;24.60;13.80;;;;;;;21.07;100.00;101290.28;4989832;28;20464;-79
2023/08/12 06:24:35;;;;;;;26.90;13.63;;;;;;;21.12;100.00;101283.97;4989847;28;20141;-79
2023/08/12 06:27:02;;;;;;;21.50;12.18;;;;;;;21.03;100.00;101286.81;4991647;28;20057;-76
2023/08/12 06:29:28;;;;;;;23.25;12.32;;;;;;;20.95;100.00;101285.59;5006871;28;20501;-78
2023/08/12 06:31:55;;;;;;;22.20;13.60;;;;;;;21.03;100.00;101291.72;4990907;28;20172;-78
2023/08/12 06:34:22;;;;;;;23.15;13.82;;;;;;;20.96;100.00;101275.84;4991326;28;20050;-78
2023/08/12 06:36:48;;;;;;;19.42;11.50;;;;;;;20.94;100.00;101284.03;4990719;28;20108;-78
2023/08/12 06:39:15;;;;;;;22.58;12.07;;;;;;;20.77;100.00;101284.84;4983390;28;20101;-78
2023/08/12 06:41:41;;;;;;;22.55;11.43;;;;;;;20.78;100.00;101292.84;4990661;28;20046;-78
2023/08/12 06:44:08;;;;;;;23.58;12.40;;;;;;;20.72;100.00;101286.25;4990491;28;20046;-77
2023/08/12 06:46:35;;;;;;;19.30;9.70;;;;;;;20.34;100.00;101286.00;4987180;28;20053;-79
2023/08/12 06:49:01;;;;;;;22.95;10.88;;;;;;;20.33;100.00;101307.03;4990974;28;20512;-78
2023/08/12 06:51:28;;;;;;;21.23;11.82;;;;;;;20.37;100.00;101302.00;4991268;28;20053;-79
2023/08/12 06:53:54;;;;;;;23.70;12.15;;;;;;;20.33;100.00;101307.03;4991372;28;20090;-77
2023/08/12 06:56:21;;;;;;;23.20;10.20;;;;;;;20.32;100.00;101304.66;4987837;28;20089;-79
2023/08/12 06:58:47;;;;;;;21.88;11.60;;;;;;;20.42;100.00;101306.22;4988176;28;20054;-75
2023/08/12 07:01:14;;;;;;;20.15;10.50;;;;;;;20.32;100.00;101301.84;4988925;28;20074;-77
2023/08/12 07:03:41;;;;;;;22.13;11.75;;;;;;;20.33;100.00;101297.75;4990123;28;20042;-78
2023/08/12 07:06:08;;;;;;;21.13;11.07;;;;;;;20.32;100.00;101304.66;4990574;28;20165;-75
2023/08/12 07:08:34;;;;;;;21.05;11.95;;;;;;;20.41;100.00;101290.53;4987745;28;20492;-77
2023/08/12 07:11:01;;;;;;;20.40;10.15;;;;;;;20.34;100.00;101288.03;4989158;28;20070;-76
2023/08/12 07:13:27;;;;;;;19.45;10.43;;;;;;;20.31;100.00;101281.28;4989653;28;20104;-77
2023/08/12 07:15:54;;;;;;;23.20;10.10;;;;;;;20.28;100.00;101282.22;5002800;28;20108;-75
2023/08/12 07:18:22;;;;;;;21.17;10.15;;;;;;;20.24;100.00;101280.81;4987556;28;20149;-77
2023/08/12 07:20:50;;;;;;;20.02;9.65;;;;;;;20.37;100.00;101276.56;4990162;28;20061;-77
2023/08/12 07:23:16;;;;;;;19.40;9.27;;;;;;;20.31;100.00;101274.84;4988431;28;20172;-76
2023/08/12 07:25:46;;;;;;;19.13;8.50;;;;;;;20.39;100.00;101278.94;4991843;28;20861;-77
2023/08/12 07:28:12;;;;;;;16.08;7.85;;;;;;;20.29;100.00;101283.81;4989956;28;20570;-78
2023/08/12 07:30:39;;;;;;;15.65;7.60;;;;;;;20.40;100.00;101298.22;4985802;28;20125;-77
2023/08/12 07:33:07;;;;;;;15.43;8.18;;;;;;;20.33;100.00;101297.75;4966419;28;20053;-77
2023/08/12 07:35:34;;;;;;;17.33;8.73;;;;;;;20.46;100.00;101296.34;4988186;28;20054;-80
2023/08/12 07:38:00;;;;;;;15.50;7.55;;;;;;;20.45;100.00;101283.47;4986962;28;20052;-78
2023/08/12 07:40:27;;;;;;;20.85;9.07;;;;;;;20.52;100.00;101279.56;4990378;28;20100;-78
2023/08/12 07:42:53;;;;;;;15.73;7.32;;;;;;;20.49;100.00;101288.97;4989683;28;21575;-77
2023/08/12 07:45:21;;;;;;;17.83;8.52;;;;;;;20.48;100.00;101299.47;4988372;28;20513;-77
2023/08/12 07:47:50;;;;;;;14.35;7.50;;;;;;;20.59;100.00;101299.75;4988852;28;20477;-80
2023/08/12 07:50:17;;;;;;;12.35;5.65;;;;;;;20.48;100.00;101291.00;4989149;28;20057;-79
2023/08/12 07:52:43;;;;;;;13.68;6.45;;;;;;;20.52;100.00;101288.78;4987297;28;20129;-76
2023/08/12 07:55:10;;;;;;;15.43;6.50;;;;;;;20.56;100.00;101285.81;4989833;28;20046;-77
2023/08/12 07:57:36;;;;;;;12.40;6.18;;;;;;;20.49;100.00;101286.16;4988915;28;20050;-76
2023/08/12 08:00:03;;;;;;;14.30;6.18;;;;;;;20.49;100.00;101286.91;4989812;28;20081;-77
2023/08/12 08:02:30;;;;;;;14.02;6.22;;;;;;;20.48;100.00;101291.00;4986831;28;20058;-77
2023/08/12 08:04:57;;;;;;;10.13;5.43;;;;;;;20.55;100.00;101284.25;5003527;28;20046;-77
2023/08/12 08:07:24;;;;;;;15.20;5.72;;;;;;;20.55;100.00;101287.09;4986603;28;20212;-73
2023/08/12 08:09:51;;;;;;;14.80;6.15;;;;;;;20.61;100.00;101269.00;4987501;28;20113;-75
2023/08/12 08:12:18;;;;;;;12.02;5.40;;;;;;;20.64;100.00;101259.59;5004506;28;20062;-79
2023/08/12 08:14:44;;;;;;;11.30;5.60;;;;;;;20.85;100.00;101258.59;4990091;28;20074;-77
2023/08/12 08:17:11;;;;;;;9.50;3.53;;;;;;;20.74;100.00;101263.16;5002636;28;20066;-77
2023/08/12 08:19:38;;;;;;;6.45;2.90;;;;;;;20.84;100.00;101274.00;4988752;28;20046;-78
2023/08/12 08:22:05;;;;;;;12.55;5.05;;;;;;;20.76;100.00;101258.59;4989657;28;20042;-78
2023/08/12 08:24:31;;;;;;;12.63;5.57;;;;;;;20.85;100.00;101257.81;4990807;28;20050;-77
2023/08/12 08:26:58;;;;;;;9.30;4.30;;;;;;;20.60;100.00;101264.63;4990164;28;20054;-77
2023/08/12 08:29:25;;;;;;;8.80;3.53;;;;;;;20.51;100.00;101263.84;4989072;28;20054;-76
2023/08/12 08:31:51;;;;;;;14.10;6.20;;;;;;;20.62;100.00;101261.34;4990565;28;20058;-75
2023/08/12 08:34:18;;;;;;;11.90;4.38;;;;;;;20.56;100.00;101247.06;4987404;28;20112;-78
2023/08/12 08:36:45;;;;;;;9.70;4.68;;;;;;;20.56;100.00;101249.09;4988964;28;20505;-76
2023/08/12 08:39:11;;;;;;;11.25;5.40;;;;;;;20.58;100.00;101258.66;4985175;28;20046;-77
2023/08/12 08:41:39;;;;;;;7.68;3.88;;;;;;;20.56;100.00;101252.72;4989409;28;20078;-78
2023/08/12 08:44:08;;;;;;;11.65;6.10;;;;;;;20.65;100.00;101247.03;4987882;28;20042;-78
2023/08/12 08:46:36;;;;;;;9.27;4.05;;;;;;;20.50;100.00;101246.13;4987502;28;20058;-77
2023/08/12 08:49:04;;;;;;;10.90;3.67;;;;;;;20.60;100.00;101246.88;4987650;28;20129;-79
2023/08/12 08:51:32;;;;;;;13.63;7.15;;;;;;;20.69;100.00;101250.47;4989417;28;20054;-76
2023/08/12 08:53:58;;;;;;;13.45;6.38;;;;;;;20.69;100.00;101263.81;4986415;28;20046;-80
2023/08/12 08:56:32;;;;;;;12.30;6.47;;;;;;;20.77;100.00;101263.03;4988203;28;20074;-78
2023/08/12 08:58:59;;;;;;;14.45;7.47;;;;;;;20.75;100.00;101259.09;4987857;28;20073;-74
2023/08/12 09:01:27;;;;;;;9.00;4.72;;;;;;;20.62;100.00;101264.91;4986740;28;20046;-76
2023/08/12 09:03:54;;;;;;;12.48;7.47;;;;;;;20.79;100.00;101263.31;4986063;28;20053;-75
2023/08/12 09:06:22;;;;;;;12.50;6.75;;;;;;;20.69;100.00;101266.66;4988566;28;20058;-76
2023/08/12 09:08:51;;;;;;;11.88;6.88;;;;;;;20.66;100.00;101261.94;4988635;28;20515;-76
2023/08/12 09:11:19;;;;;;;11.15;4.85;;;;;;;20.64;100.00;101279.38;4988747;28;20054;-76
2023/08/12 09:13:46;;;;;;;10.68;5.88;;;;;;;20.71;100.00;101259.25;4988089;28;20398;-76
2023/08/12 09:16:14;;;;;;;8.60;4.38;;;;;;;20.76;100.00;101269.16;4988849;28;20791;-79
2023/08/12 09:18:43;;;;;;;12.63;6.20;;;;;;;20.85;100.00;101257.81;4990716;28;20054;-75
2023/08/12 09:21:10;;;;;;;12.55;6.68;;;;;;;20.86;100.00;101262.22;4990775;28;20046;-76
2023/08/12 09:23:41;;;;;;;10.30;5.05;;;;;;;20.72;100.00;101258.00;4987864;28;20046;-76
2023/08/12 09:26:14;;;;;;;11.48;5.75;;;;;;;20.67;100.00;101264.31;4985220;28;20058;-74
2023/08/12 09:28:42;;;;;;;15.68;7.15;;;;;;;20.76;100.00;101267.09;4987756;28;20161;-76
2023/08/12 09:31:23;;;;;;;13.07;6.93;;;;;;;20.68;100.00;101260.22;4987129;28;20062;-77
2023/08/12 09:33:50;;;;;;;12.43;7.00;;;;;;;20.56;100.00;101272.50;4986225;28;20093;-76
2023/08/12 09:36:17;;;;;;;14.23;6.78;;;;;;;20.51;100.00;101283.63;4993724;28;20746;-77
2023/08/12 09:38:47;;;;;;;8.65;4.20;;;;;;;20.64;100.00;101275.75;4988240;28;20077;-77
2023/08/12 09:41:14;;;;;;;9.40;4.75;;;;;;;20.47;100.00;101275.31;4988337;28;20050;-77
2023/08/12 09:43:44;;;;;;;5.57;2.80;;;;;;;20.46;100.00;101276.59;4987459;28;20491;-77
2023/08/12 09:46:13;;;;;;;13.57;6.10;;;;;;;20.60;100.00;101269.50;4984636;28;20100;-76
2023/08/12 09:48:40;;;;;;;8.07;3.47;;;;;;;20.48;100.00;101276.09;4986719;28;20045;-78
2023/08/12 09:51:08;;;;;;;14.73;6.95;;;;;;;20.70;100.00;101256.91;4987754;28;20128;-78
2023/08/12 09:53:34;;;;;;;11.60;5.65;;;;;;;20.63;100.00;101260.88;4988430;28;20093;-76
2023/08/12 09:56:07;;;;;;;4.70;2.63;;;;;;;20.48;100.00;101259.94;4990470;28;20505;-76
2023/08/12 09:58:36;;;;;;;12.70;6.38;;;;;;;20.82;100.00;101253.88;4986755;28;20054;-77
2023/08/12 10:01:04;;;;;;;8.52;4.60;;;;;;;20.72;100.00;101255.16;4984547;28;20050;-76
2023/08/12 10:03:34;;;;;;;11.30;5.32;;;;;;;20.78;100.00;101264.59;4986393;28;20376;-75
2023/08/12 10:06:03;;;;;;;10.80;5.38;;;;;;;20.92;100.00;101263.91;4987192;28;20141;-75
2023/08/12 10:08:31;;;;;;;10.80;5.75;;;;;;;20.80;100.00;101266.94;4988302;28;20196;-76
2023/08/12 10:10:58;;;;;;;7.88;3.40;;;;;;;20.58;100.00;101284.09;4984648;28;20058;-76
2023/08/12 10:13:42;;;;;;;11.73;4.88;;;;;;;20.60;100.00;101286.44;4983304;28;20089;-76
2023/08/12 10:16:10;;;;;;;13.90;5.20;;;;;;;20.55;100.00;101299.16;4983671;28;20468;-75
2023/08/12 10:18:40;;;;;;;9.50;4.72;;;;;;;20.40;100.00;101303.88;4987497;28;20057;-76
2023/08/12 10:21:13;;;;;;;4.60;2.50;;;;;;;20.40;100.00;101322.84;4985268;28;20513;-74
2023/08/12 10:23:42;;;;;;;7.13;3.10;;;;;;;20.42;100.00;101332.41;4986827;28;20829;-74
2023/08/12 10:26:14;;;;;;;10.05;4.70;;;;;;;20.29;100.00;101351.56;4987375;28;20104;-77
2023/08/12 10:28:40;;;;;;;6.30;2.85;;;;;;;20.22;100.00;101356.72;4986991;28;20046;-75
2023/08/12 10:31:07;;;;;;;9.50;4.50;;;;;;;20.40;100.00;101354.72;4984920;28;20050;-74
2023/08/12 10:33:41;;;;;;;8.10;3.45;;;;;;;20.21;100.00;101364.38;4986473;28;20054;-76
2023/08/12 10:36:08;;;;;;;9.52;4.15;;;;;;;20.23;100.00;101367.56;4987428;28;20050;-76
2023/08/12 10:38:36;;;;;;;6.15;2.72;;;;;;;20.16;100.00;101379.13;4987163;28;20053;-77
2023/08/12 10:41:23;;;;;;;8.90;3.90;;;;;;;20.38;100.00;101381.88;4984123;28;20093;-69
2023/08/12 10:43:51;;;;;;;4.97;2.85;;;;;;;20.23;100.00;101378.84;4987704;28;20053;-77
2023/08/12 10:46:35;;;;;;;4.10;2.25;;;;;;;20.48;100.00;101377.78;4988688;28;20047;-75
2023/08/12 10:49:04;;;;;;;5.43;3.00;;;;;;;20.64;100.00;101369.78;4989100;28;20073;-75
2023/08/12 10:51:41;;;;;;;8.57;3.95;;;;;;;20.73;100.00;101364.13;4991436;28;20424;-74
2023/08/12 10:54:17;;;;;;;5.68;3.13;;;;;;;20.68;100.00;101361.91;4990425;28;20105;-75
2023/08/12 10:57:05;;;;;;;9.32;4.47;;;;;;;20.74;100.00;101357.22;4990996;28;20476;-75
2023/08/12 10:59:44;;;;;;;3.35;1.70;;;;;;;20.78;100.00;101343.69;4982816;28;20410;-77
2023/08/12 11:02:36;;;;;;;7.22;3.58;;;;;;;20.97;100.00;101336.81;4988830;28;20058;-76
2023/08/12 11:05:07;;;;;;;9.93;4.68;;;;;;;21.28;100.00;101316.75;4989287;28;20075;-76
2023/08/12 11:07:41;;;;;;;6.97;3.75;;;;;;;21.32;100.00;101297.56;4987652;28;20054;-77